sensor_id;sensor_type;location;lat;lon;timestamp;P1;P2;P0
27143;PMS1003;14672;50.250;8.312;2023-08-12T00:02:07;18.33;18.33;10.00
27143;PMS1003;14672;50.250;8.312;2023-08-12T00:04:33;22.00;22.00;11.00
27143;PMS1003;14672;50.250;8.312;2023-08-12T00:06:59;26.67;22.67;10.67
27143;PMS1003;14672;50.250;8.312;2023-08-12T00:09:24;22.33;20.00;11.00
27143;PMS1003;14672;50.250;8.312;2023-08-12T00:11:50;24.00;23.00;14.67
27143;PMS1003;14672;50.250;8.312;2023-08-12T00:14:16;35.67;35.00;19.00
27143;PMS1003;14672;50.250;8.312;2023-08-12T00:16:41;19.67;19.00;10.00
27143;PMS1003;14672;50.250;8.312;2023-08-12T00:19:07;18.67;18.67;9.33
27143;PMS1003;14672;50.250;8.312;2023-08-12T00:21:33;18.25;15.25;10.00
27143;PMS1003;14672;50.250;8.312;2023-08-12T00:23:59;18.67;18.67;11.00
27143;PMS1003;14672;50.250;8.312;2023-08-12T00:26:24;16.67;16.00;10.00
27143;PMS1003;14672;50.250;8.312;2023-08-12T00:28:51;19.25;18.75;11.00
27143;PMS1003;14672;50.250;8.312;2023-08-12T00:31:17;16.33;16.33;9.67
27143;PMS1003;14672;50.250;8.312;2023-08-12T00:33:43;19.67;19.00;10.67
27143;PMS1003;14672;50.250;8.312;2023-08-12T00:36:12;18.00;17.25;10.25
27143;PMS1003;14672;50.250;8.312;2023-08-12T00:38:37;20.00;19.67;10.33
27143;PMS1003;14672;50.250;8.312;2023-08-12T00:41:03;18.67;18.67;10.33
27143;PMS1003;14672;50.250;8.312;2023-08-12T00:43:29;16.33;16.33;10.00
27143;PMS1003;14672;50.250;8.312;2023-08-12T00:45:54;19.33;19.33;11.00
27143;PMS1003;14672;50.250;8.312;2023-08-12T00:48:20;20.33;19.33;10.00
27143;PMS1003;14672;50.250;8.312;2023-08-12T00:50:48;19.75;19.75;10.75
27143;PMS1003;14672;50.250;8.312;2023-08-12T00:53:14;18.25;17.50;9.75
27143;PMS1003;14672;50.250;8.312;2023-08-12T00:55:41;18.75;18.50;10.75
27143;PMS1003;14672;50.250;8.312;2023-08-12T00:58:07;18.67;16.33;10.00
27143;PMS1003;14672;50.250;8.312;2023-08-12T01:00:34;19.75;19.75;9.00
27143;PMS1003;14672;50.250;8.312;2023-08-12T01:03:00;18.33;18.00;10.67
27143;PMS1003;14672;50.250;8.312;2023-08-12T01:05:26;17.75;17.50;11.25
27143;PMS1003;14672;50.250;8.312;2023-08-12T01:07:52;18.00;18.00;11.00
27143;PMS1003;14672;50.250;8.312;2023-08-12T01:10:19;18.33;18.00;10.00
27143;PMS1003;14672;50.250;8.312;2023-08-12T01:12:57;16.50;16.25;10.75
27143;PMS1003;14672;50.250;8.312;2023-08-12T01:15:44;20.25;19.00;10.00
27143;PMS1003;14672;50.250;8.312;2023-08-12T01:18:15;21.25;21.25;11.00
27143;PMS1003;14672;50.250;8.312;2023-08-12T01:20:42;17.75;17.75;11.00
27143;PMS1003;14672;50.250;8.312;2023-08-12T01:23:14;17.00;16.67;10.00
27143;PMS1003;14672;50.250;8.312;2023-08-12T01:25:41;19.75;19.75;10.75
27143;PMS1003;14672;50.250;8.312;2023-08-12T01:28:07;19.00;19.00;11.50
27143;PMS1003;14672;50.250;8.312;2023-08-12T01:30:39;17.50;17.50;11.25
27143;PMS1003;14672;50.250;8.312;2023-08-12T01:33:31;19.25;18.50;11.00
27143;PMS1003;14672;50.250;8.312;2023-08-12T01:36:17;19.75;19.75;11.00
27143;PMS1003;14672;50.250;8.312;2023-08-12T01:38:46;19.00;18.75;11.00
27143;PMS1003;14672;50.250;8.312;2023-08-12T01:41:15;20.00;18.75;11.50
27143;PMS1003;14672;50.250;8.312;2023-08-12T01:43:43;18.75;18.00;11.25
27143;PMS1003;14672;50.250;8.312;2023-08-12T01:46:10;20.75;19.00;10.00
27143;PMS1003;14672;50.250;8.312;2023-08-12T01:48:36;22.33;22.00;12.33
27143;PMS1003;14672;50.250;8.312;2023-08-12T01:51:02;24.00;24.00;13.67
27143;PMS1003;14672;50.250;8.312;2023-08-12T01:53:28;16.75;16.25;9.75
27143;PMS1003;14672;50.250;8.312;2023-08-12T01:55:54;17.00;16.67;10.67
27143;PMS1003;14672;50.250;8.312;2023-08-12T01:58:19;18.00;16.33;8.33
27143;PMS1003;14672;50.250;8.312;2023-08-12T02:00:45;19.00;18.00;10.00
27143;PMS1003;14672;50.250;8.312;2023-08-12T02:03:11;22.33;20.33;10.67
27143;PMS1003;14672;50.250;8.312;2023-08-12T02:05:36;19.67;17.67;11.33
27143;PMS1003;14672;50.250;8.312;2023-08-12T02:08:03;17.00;17.00;10.33
27143;PMS1003;14672;50.250;8.312;2023-08-12T02:10:30;21.00;20.00;11.00
27143;PMS1003;14672;50.250;8.312;2023-08-12T02:12:55;16.00;15.67;9.67
27143;PMS1003;14672;50.250;8.312;2023-08-12T02:15:21;21.00;20.67;11.33
27143;PMS1003;14672;50.250;8.312;2023-08-12T02:17:47;19.00;18.00;10.67
27143;PMS1003;14672;50.250;8.312;2023-08-12T02:20:12;20.50;19.50;12.00
27143;PMS1003;14672;50.250;8.312;2023-08-12T02:22:38;20.00;18.67;10.67
27143;PMS1003;14672;50.250;8.312;2023-08-12T02:25:04;20.67;20.00;11.00
27143;PMS1003;14672;50.250;8.312;2023-08-12T02:27:30;19.50;19.25;10.25
27143;PMS1003;14672;50.250;8.312;2023-08-12T02:29:56;18.33;18.33;10.67
27143;PMS1003;14672;50.250;8.312;2023-08-12T02:32:21;24.00;21.00;9.67
27143;PMS1003;14672;50.250;8.312;2023-08-12T02:34:48;21.00;19.33;10.67
27143;PMS1003;14672;50.250;8.312;2023-08-12T02:37:14;21.25;18.75;10.00
27143;PMS1003;14672;50.250;8.312;2023-08-12T02:39:40;21.00;19.67;10.67
27143;PMS1003;14672;50.250;8.312;2023-08-12T02:42:05;16.33;16.33;10.33
27143;PMS1003;14672;50.250;8.312;2023-08-12T02:44:31;19.67;19.67;11.67
27143;PMS1003;14672;50.250;8.312;2023-08-12T02:46:57;20.67;19.67;11.33
27143;PMS1003;14672;50.250;8.312;2023-08-12T02:49:22;17.33;17.33;11.00
27143;PMS1003;14672;50.250;8.312;2023-08-12T02:51:48;20.67;20.67;12.67
27143;PMS1003;14672;50.250;8.312;2023-08-12T02:54:14;20.00;20.00;11.00
27143;PMS1003;14672;50.250;8.312;2023-08-12T02:56:40;20.67;20.00;11.33
27143;PMS1003;14672;50.250;8.312;2023-08-12T02:59:05;19.33;19.00;11.67
27143;PMS1003;14672;50.250;8.312;2023-08-12T03:01:31;22.67;22.67;12.33
27143;PMS1003;14672;50.250;8.312;2023-08-12T03:03:58;28.33;26.67;15.67
27143;PMS1003;14672;50.250;8.312;2023-08-12T03:06:24;31.00;31.00;18.75
27143;PMS1003;14672;50.250;8.312;2023-08-12T03:08:49;30.67;30.33;19.00
27143;PMS1003;14672;50.250;8.312;2023-08-12T03:11:15;30.33;28.00;16.67
27143;PMS1003;14672;50.250;8.312;2023-08-12T03:13:41;24.50;24.50;14.75
27143;PMS1003;14672;50.250;8.312;2023-08-12T03:16:13;28.00;27.00;14.67
27143;PMS1003;14672;50.250;8.312;2023-08-12T03:18:39;22.50;22.50;13.75
27143;PMS1003;14672;50.250;8.312;2023-08-12T03:21:06;24.50;24.00;14.25
27143;PMS1003;14672;50.250;8.312;2023-08-12T03:23:34;28.25;24.50;14.50
27143;PMS1003;14672;50.250;8.312;2023-08-12T03:26:02;24.00;23.75;14.00
27143;PMS1003;14672;50.250;8.312;2023-08-12T03:28:28;26.75;26.50;15.00
27143;PMS1003;14672;50.250;8.312;2023-08-12T03:30:55;25.50;23.25;13.00
27143;PMS1003;14672;50.250;8.312;2023-08-12T03:33:21;25.00;24.67;13.67
27143;PMS1003;14672;50.250;8.312;2023-08-12T03:35:47;24.67;23.33;14.67
27143;PMS1003;14672;50.250;8.312;2023-08-12T03:38:14;23.50;23.50;14.25
27143;PMS1003;14672;50.250;8.312;2023-08-12T03:40:41;28.50;28.00;17.00
27143;PMS1003;14672;50.250;8.312;2023-08-12T03:43:07;29.50;28.25;16.75
27143;PMS1003;14672;50.250;8.312;2023-08-12T03:45:39;31.33;30.00;16.67
27143;PMS1003;14672;50.250;8.312;2023-08-12T03:48:06;31.75;30.00;17.00
27143;PMS1003;14672;50.250;8.312;2023-08-12T03:50:33;31.50;29.25;16.50
27143;PMS1003;14672;50.250;8.312;2023-08-12T03:53:00;27.50;27.50;17.50
27143;PMS1003;14672;50.250;8.312;2023-08-12T03:55:26;32.75;27.75;17.50
27143;PMS1003;14672;50.250;8.312;2023-08-12T03:57:52;27.67;27.67;16.00
27143;PMS1003;14672;50.250;8.312;2023-08-12T04:00:18;30.00;29.00;18.00
27143;PMS1003;14672;50.250;8.312;2023-08-12T04:02:43;29.00;26.67;15.33
27143;PMS1003;14672;50.250;8.312;2023-08-12T04:05:09;27.33;27.33;15.00
27143;PMS1003;14672;50.250;8.312;2023-08-12T04:07:35;32.33;31.33;17.33
27143;PMS1003;14672;50.250;8.312;2023-08-12T04:10:01;30.50;30.00;19.50
27143;PMS1003;14672;50.250;8.312;2023-08-12T04:12:28;29.50;28.25;16.75
27143;PMS1003;14672;50.250;8.312;2023-08-12T04:14:53;28.33;27.33;16.00
27143;PMS1003;14672;50.250;8.312;2023-08-12T04:17:19;29.00;29.00;18.33
27143;PMS1003;14672;50.250;8.312;2023-08-12T04:19:45;27.67;26.33;16.00
27143;PMS1003;14672;50.250;8.312;2023-08-12T04:22:10;31.00;30.00;17.00
27143;PMS1003;14672;50.250;8.312;2023-08-12T04:24:36;35.00;33.67;17.33
27143;PMS1003;14672;50.250;8.312;2023-08-12T04:27:02;34.33;31.00;19.00
27143;PMS1003;14672;50.250;8.312;2023-08-12T04:29:28;32.67;32.00;19.00
27143;PMS1003;14672;50.250;8.312;2023-08-12T04:31:53;29.00;27.33;17.33
27143;PMS1003;14672;50.250;8.312;2023-08-12T04:34:19;32.33;32.33;18.67
27143;PMS1003;14672;50.250;8.312;2023-08-12T04:36:45;34.67;33.67;19.67
27143;PMS1003;14672;50.250;8.312;2023-08-12T04:39:10;32.00;31.67;16.00
27143;PMS1003;14672;50.250;8.312;2023-08-12T04:41:36;33.33;31.00;17.67
27143;PMS1003;14672;50.250;8.312;2023-08-12T04:44:03;32.75;31.50;16.75
27143;PMS1003;14672;50.250;8.312;2023-08-12T04:46:30;32.50;31.75;18.50
27143;PMS1003;14672;50.250;8.312;2023-08-12T04:48:57;32.25;32.00;18.25
27143;PMS1003;14672;50.250;8.312;2023-08-12T04:51:22;36.00;32.67;19.00
27143;PMS1003;14672;50.250;8.312;2023-08-12T04:53:48;33.67;33.00;19.00
27143;PMS1003;14672;50.250;8.312;2023-08-12T04:56:14;29.00;28.33;15.67
27143;PMS1003;14672;50.250;8.312;2023-08-12T04:58:39;35.00;33.33;20.00
27143;PMS1003;14672;50.250;8.312;2023-08-12T05:01:08;32.00;32.00;20.00
27143;PMS1003;14672;50.250;8.312;2023-08-12T05:03:34;43.33;39.33;24.67
27143;PMS1003;14672;50.250;8.312;2023-08-12T05:06:00;75.25;60.50;37.75
27143;PMS1003;14672;50.250;8.312;2023-08-12T05:08:25;50.75;45.00;27.75
27143;PMS1003;14672;50.250;8.312;2023-08-12T05:10:51;25.00;25.00;14.00
27143;PMS1003;14672;50.250;8.312;2023-08-12T05:13:17;29.67;28.67;16.00
27143;PMS1003;14672;50.250;8.312;2023-08-12T05:15:46;26.33;26.33;16.00
27143;PMS1003;14672;50.250;8.312;2023-08-12T05:18:12;27.75;27.50;15.25
27143;PMS1003;14672;50.250;8.312;2023-08-12T05:20:42;25.75;24.75;15.25
27143;PMS1003;14672;50.250;8.312;2023-08-12T05:23:08;29.00;28.00;15.50
27143;PMS1003;14672;50.250;8.312;2023-08-12T05:25:34;26.00;25.33;16.00
27143;PMS1003;14672;50.250;8.312;2023-08-12T05:27:59;29.00;26.00;16.00
27143;PMS1003;14672;50.250;8.312;2023-08-12T05:30:25;51.25;44.75;27.75
27143;PMS1003;14672;50.250;8.312;2023-08-12T05:32:51;35.00;34.00;21.33
27143;PMS1003;14672;50.250;8.312;2023-08-12T05:35:16;29.67;29.33;15.33
27143;PMS1003;14672;50.250;8.312;2023-08-12T05:37:42;25.00;24.33;15.00
27143;PMS1003;14672;50.250;8.312;2023-08-12T05:40:08;27.33;27.33;15.33
27143;PMS1003;14672;50.250;8.312;2023-08-12T05:42:35;23.75;23.25;15.50
27143;PMS1003;14672;50.250;8.312;2023-08-12T05:45:01;24.25;24.25;14.00
27143;PMS1003;14672;50.250;8.312;2023-08-12T05:47:28;25.00;24.25;15.00
27143;PMS1003;14672;50.250;8.312;2023-08-12T05:49:54;29.33;25.33;15.00
27143;PMS1003;14672;50.250;8.312;2023-08-12T05:52:19;29.67;29.67;16.00
27143;PMS1003;14672;50.250;8.312;2023-08-12T05:54:46;25.25;25.00;16.25
27143;PMS1003;14672;50.250;8.312;2023-08-12T05:57:12;24.33;23.67;15.00
27143;PMS1003;14672;50.250;8.312;2023-08-12T05:59:38;26.00;25.67;15.00
27143;PMS1003;14672;50.250;8.312;2023-08-12T06:02:03;27.00;24.33;13.33
27143;PMS1003;14672;50.250;8.312;2023-08-12T06:04:29;27.00;25.33;14.33
27143;PMS1003;14672;50.250;8.312;2023-08-12T06:06:55;25.33;25.33;15.00
27143;PMS1003;14672;50.250;8.312;2023-08-12T06:09:21;23.00;22.00;12.00
27143;PMS1003;14672;50.250;8.312;2023-08-12T06:11:47;26.25;25.25;14.75
27143;PMS1003;14672;50.250;8.312;2023-08-12T06:14:12;23.00;21.33;12.00
27143;PMS1003;14672;50.250;8.312;2023-08-12T06:16:38;26.00;26.00;14.00
27143;PMS1003;14672;50.250;8.312;2023-08-12T06:19:04;23.00;23.00;15.67
27143;PMS1003;14672;50.250;8.312;2023-08-12T06:21:30;25.67;25.00;14.67
27143;PMS1003;14672;50.250;8.312;2023-08-12T06:23:56;21.00;20.67;11.67
27143;PMS1003;14672;50.250;8.312;2023-08-12T06:26:21;20.33;20.33;13.33
27143;PMS1003;14672;50.250;8.312;2023-08-12T06:28:47;19.33;19.33;11.00
27143;PMS1003;14672;50.250;8.312;2023-08-12T06:31:13;17.00;17.00;11.00
27143;PMS1003;14672;50.250;8.312;2023-08-12T06:33:39;20.33;20.00;10.67
27143;PMS1003;14672;50.250;8.312;2023-08-12T06:36:05;17.00;17.00;11.25
27143;PMS1003;14672;50.250;8.312;2023-08-12T06:38:31;16.00;16.00;8.00
27143;PMS1003;14672;50.250;8.312;2023-08-12T06:40:57;17.00;16.67;8.00
27143;PMS1003;14672;50.250;8.312;2023-08-12T06:43:23;17.00;15.33;8.00
27143;PMS1003;14672;50.250;8.312;2023-08-12T06:45:48;12.33;12.33;7.00
27143;PMS1003;14672;50.250;8.312;2023-08-12T06:48:14;16.00;15.00;8.67
27143;PMS1003;14672;50.250;8.312;2023-08-12T06:50:40;18.33;17.67;12.00
27143;PMS1003;14672;50.250;8.312;2023-08-12T06:53:06;20.33;19.33;11.67
27143;PMS1003;14672;50.250;8.312;2023-08-12T06:55:32;17.50;16.75;10.25
27143;PMS1003;14672;50.250;8.312;2023-08-12T06:57:58;21.00;20.00;11.00
27143;PMS1003;14672;50.250;8.312;2023-08-12T07:00:25;18.25;18.25;11.75
27143;PMS1003;14672;50.250;8.312;2023-08-12T07:02:50;22.00;20.33;12.00
27143;PMS1003;14672;50.250;8.312;2023-08-12T07:05:16;19.67;19.67;12.00
27143;PMS1003;14672;50.250;8.312;2023-08-12T07:07:45;19.75;19.75;11.25
27143;PMS1003;14672;50.250;8.312;2023-08-12T07:10:10;24.67;24.67;13.67
27143;PMS1003;14672;50.250;8.312;2023-08-12T07:12:36;23.00;22.00;13.00
27143;PMS1003;14672;50.250;8.312;2023-08-12T07:15:02;25.00;24.33;14.00
27143;PMS1003;14672;50.250;8.312;2023-08-12T07:17:28;23.33;22.00;13.67
27143;PMS1003;14672;50.250;8.312;2023-08-12T07:19:53;30.33;29.33;17.33
27143;PMS1003;14672;50.250;8.312;2023-08-12T07:22:19;24.67;24.67;15.67
27143;PMS1003;14672;50.250;8.312;2023-08-12T07:24:45;27.25;26.25;14.00
27143;PMS1003;14672;50.250;8.312;2023-08-12T07:27:11;27.67;27.67;16.67
27143;PMS1003;14672;50.250;8.312;2023-08-12T07:29:37;30.00;29.33;18.00
27143;PMS1003;14672;50.250;8.312;2023-08-12T07:32:02;29.00;28.00;15.67
27143;PMS1003;14672;50.250;8.312;2023-08-12T07:34:28;28.00;28.00;16.25
27143;PMS1003;14672;50.250;8.312;2023-08-12T07:36:57;29.00;27.75;16.25
27143;PMS1003;14672;50.250;8.312;2023-08-12T07:39:26;30.25;29.00;17.50
27143;PMS1003;14672;50.250;8.312;2023-08-12T07:41:51;29.33;29.33;16.00
27143;PMS1003;14672;50.250;8.312;2023-08-12T07:44:17;27.00;26.33;15.67
27143;PMS1003;14672;50.250;8.312;2023-08-12T07:46:43;29.67;27.00;15.67
27143;PMS1003;14672;50.250;8.312;2023-08-12T07:49:08;24.00;24.00;14.00
27143;PMS1003;14672;50.250;8.312;2023-08-12T07:51:35;26.75;26.75;14.75
27143;PMS1003;14672;50.250;8.312;2023-08-12T07:54:01;27.00;25.67;15.33
27143;PMS1003;14672;50.250;8.312;2023-08-12T07:56:27;25.00;25.00;15.75
27143;PMS1003;14672;50.250;8.312;2023-08-12T07:58:55;25.75;25.75;16.75
27143;PMS1003;14672;50.250;8.312;2023-08-12T08:01:21;26.33;26.33;15.67
27143;PMS1003;14672;50.250;8.312;2023-08-12T08:03:47;37.00;36.33;22.00
27143;PMS1003;14672;50.250;8.312;2023-08-12T08:06:12;31.00;30.00;17.00
27143;PMS1003;14672;50.250;8.312;2023-08-12T08:08:38;28.33;26.33;15.00
27143;PMS1003;14672;50.250;8.312;2023-08-12T08:11:04;29.75;29.75;18.00
27143;PMS1003;14672;50.250;8.312;2023-08-12T08:13:30;30.00;28.33;18.00
27143;PMS1003;14672;50.250;8.312;2023-08-12T08:15:56;25.67;25.00;14.33
27143;PMS1003;14672;50.250;8.312;2023-08-12T08:18:21;31.00;30.00;18.00
27143;PMS1003;14672;50.250;8.312;2023-08-12T08:20:47;25.00;24.33;15.00
27143;PMS1003;14672;50.250;8.312;2023-08-12T08:23:17;26.00;25.50;14.25
27143;PMS1003;14672;50.250;8.312;2023-08-12T08:25:42;26.67;26.00;14.33
27143;PMS1003;14672;50.250;8.312;2023-08-12T08:28:10;23.00;23.00;14.00
27143;PMS1003;14672;50.250;8.312;2023-08-12T08:30:36;25.50;25.00;15.00
27143;PMS1003;14672;50.250;8.312;2023-08-12T08:33:02;22.75;22.75;13.25
27143;PMS1003;14672;50.250;8.312;2023-08-12T08:35:28;29.25;25.25;13.00
27143;PMS1003;14672;50.250;8.312;2023-08-12T08:37:54;28.33;27.00;15.67
27143;PMS1003;14672;50.250;8.312;2023-08-12T08:40:20;24.67;24.67;13.00
27143;PMS1003;14672;50.250;8.312;2023-08-12T08:42:45;22.33;20.33;12.33
27143;PMS1003;14672;50.250;8.312;2023-08-12T08:45:15;23.75;21.25;13.00
27143;PMS1003;14672;50.250;8.312;2023-08-12T08:47:41;22.00;22.00;14.00
27143;PMS1003;14672;50.250;8.312;2023-08-12T08:50:08;19.25;19.25;12.75
27143;PMS1003;14672;50.250;8.312;2023-08-12T08:52:35;20.75;20.00;10.50
27143;PMS1003;14672;50.250;8.312;2023-08-12T08:55:03;20.50;20.50;11.75
27143;PMS1003;14672;50.250;8.312;2023-08-12T08:57:32;22.00;22.00;13.50
27143;PMS1003;14672;50.250;8.312;2023-08-12T08:59:58;20.00;20.00;12.25
27143;PMS1003;14672;50.250;8.312;2023-08-12T09:02:24;21.00;20.33;12.00
27143;PMS1003;14672;50.250;8.312;2023-08-12T09:04:50;21.50;20.50;12.25
27143;PMS1003;14672;50.250;8.312;2023-08-12T09:07:16;21.00;21.00;12.75
27143;PMS1003;14672;50.250;8.312;2023-08-12T09:09:47;25.00;22.75;13.75
27143;PMS1003;14672;50.250;8.312;2023-08-12T09:12:16;22.00;22.00;14.25
27143;PMS1003;14672;50.250;8.312;2023-08-12T09:14:44;22.00;22.00;13.75
27143;PMS1003;14672;50.250;8.312;2023-08-12T09:17:10;25.33;24.67;14.33
27143;PMS1003;14672;50.250;8.312;2023-08-12T09:19:36;29.67;29.00;16.00
27143;PMS1003;14672;50.250;8.312;2023-08-12T09:22:03;24.75;24.75;14.50
27143;PMS1003;14672;50.250;8.312;2023-08-12T09:24:30;26.25;26.25;16.00
27143;PMS1003;14672;50.250;8.312;2023-08-12T09:26:56;26.67;26.67;14.67
27143;PMS1003;14672;50.250;8.312;2023-08-12T09:29:22;24.00;24.00;14.33
27143;PMS1003;14672;50.250;8.312;2023-08-12T09:31:54;23.75;23.50;14.75
27143;PMS1003;14672;50.250;8.312;2023-08-12T09:34:30;24.75;24.75;15.75
27143;PMS1003;14672;50.250;8.312;2023-08-12T09:36:56;23.75;23.25;16.00
27143;PMS1003;14672;50.250;8.312;2023-08-12T09:39:22;23.00;23.00;15.00
27143;PMS1003;14672;50.250;8.312;2023-08-12T09:41:47;23.00;22.50;14.00
27143;PMS1003;14672;50.250;8.312;2023-08-12T09:44:16;23.50;22.50;13.75
27143;PMS1003;14672;50.250;8.312;2023-08-12T09:46:42;22.00;21.00;12.00
27143;PMS1003;14672;50.250;8.312;2023-08-12T09:49:07;24.00;23.67;11.67
27143;PMS1003;14672;50.250;8.312;2023-08-12T09:51:36;21.75;21.75;13.50
27143;PMS1003;14672;50.250;8.312;2023-08-12T09:54:04;20.75;20.75;11.50
27143;PMS1003;14672;50.250;8.312;2023-08-12T09:56:31;26.00;25.00;15.00
27143;PMS1003;14672;50.250;8.312;2023-08-12T09:59:01;22.25;21.25;12.00
27143;PMS1003;14672;50.250;8.312;2023-08-12T10:01:32;20.50;20.25;13.75
27143;PMS1003;14672;50.250;8.312;2023-08-12T10:03:58;21.00;20.50;11.25
27143;PMS1003;14672;50.250;8.312;2023-08-12T10:06:24;23.00;23.00;12.33
27143;PMS1003;14672;50.250;8.312;2023-08-12T10:08:50;24.50;24.50;14.00
27143;PMS1003;14672;50.250;8.312;2023-08-12T10:11:17;25.25;24.75;13.75
27143;PMS1003;14672;50.250;8.312;2023-08-12T10:13:44;27.00;25.50;13.75
27143;PMS1003;14672;50.250;8.312;2023-08-12T10:16:10;24.25;24.00;15.00
27143;PMS1003;14672;50.250;8.312;2023-08-12T10:18:40;21.75;21.75;12.00
27143;PMS1003;14672;50.250;8.312;2023-08-12T10:21:10;20.75;20.50;11.50
27143;PMS1003;14672;50.250;8.312;2023-08-12T10:23:36;18.50;18.50;10.25
27143;PMS1003;14672;50.250;8.312;2023-08-12T10:26:02;17.75;16.50;9.00
27143;PMS1003;14672;50.250;8.312;2023-08-12T10:28:31;19.50;18.75;10.25
27143;PMS1003;14672;50.250;8.312;2023-08-12T10:31:02;19.00;18.00;10.50
27143;PMS1003;14672;50.250;8.312;2023-08-12T10:33:38;17.50;16.75;9.00
27143;PMS1003;14672;50.250;8.312;2023-08-12T10:36:04;19.25;19.25;9.50
27143;PMS1003;14672;50.250;8.312;2023-08-12T10:38:31;16.75;16.50;10.00
27143;PMS1003;14672;50.250;8.312;2023-08-12T10:41:17;19.00;19.00;11.25
27143;PMS1003;14672;50.250;8.312;2023-08-12T10:44:01;20.00;19.75;11.25
27143;PMS1003;14672;50.250;8.312;2023-08-12T10:46:34;17.00;16.25;9.25
27143;PMS1003;14672;50.250;8.312;2023-08-12T10:49:03;15.50;15.50;10.00
27143;PMS1003;14672;50.250;8.312;2023-08-12T10:51:42;20.50;20.00;10.00
27143;PMS1003;14672;50.250;8.312;2023-08-12T11:04:53;17.00;17.00;9.75
27143;PMS1003;14672;50.250;8.312;2023-08-12T11:10:17;18.00;18.00;9.33
27143;PMS1003;14672;50.250;8.312;2023-08-12T11:15:31;20.50;20.00;12.00
27143;PMS1003;14672;50.250;8.312;2023-08-12T11:18:05;19.50;19.00;9.50
27143;PMS1003;14672;50.250;8.312;2023-08-12T11:20:33;17.00;17.00;9.50
27143;PMS1003;14672;50.250;8.312;2023-08-12T11:23:01;19.00;18.75;11.75
27143;PMS1003;14672;50.250;8.312;2023-08-12T11:25:29;21.75;21.25;11.00
27143;PMS1003;14672;50.250;8.312;2023-08-12T11:27:56;19.00;19.00;10.25
27143;PMS1003;14672;50.250;8.312;2023-08-12T11:30:22;16.75;16.75;9.00
27143;PMS1003;14672;50.250;8.312;2023-08-12T11:32:49;16.00;16.00;10.00
27143;PMS1003;14672;50.250;8.312;2023-08-12T11:35:18;18.00;17.25;10.00
27143;PMS1003;14672;50.250;8.312;2023-08-12T11:37:49;15.75;15.75;10.00
27143;PMS1003;14672;50.250;8.312;2023-08-12T11:40:21;15.00;15.00;9.25
27143;PMS1003;14672;50.250;8.312;2023-08-12T11:42:48;15.00;14.50;8.00
27143;PMS1003;14672;50.250;8.312;2023-08-12T11:45:17;13.25;13.00;8.75
27143;PMS1003;14672;50.250;8.312;2023-08-12T11:47:45;12.00;12.00;6.25
27143;PMS1003;14672;50.250;8.312;2023-08-12T11:50:17;15.50;15.50;9.25
27143;PMS1003;14672;50.250;8.312;2023-08-12T11:52:45;18.50;18.50;10.00
27143;PMS1003;14672;50.250;8.312;2023-08-12T11:55:12;12.25;12.25;7.50
27143;PMS1003;14672;50.250;8.312;2023-08-12T11:57:39;38.50;35.75;22.25
27143;PMS1003;14672;50.250;8.312;2023-08-12T12:00:06;19.75;19.75;12.00
27143;PMS1003;14672;50.250;8.312;2023-08-12T12:02:41;51.00;43.00;27.20
27143;PMS1003;14672;50.250;8.312;2023-08-12T12:05:11;23.50;21.25;12.00
27143;PMS1003;14672;50.250;8.312;2023-08-12T12:07:39;17.00;17.00;11.00
27143;PMS1003;14672;50.250;8.312;2023-08-12T12:10:06;13.00;13.00;6.50
27143;PMS1003;14672;50.250;8.312;2023-08-12T12:12:36;11.25;11.25;5.00
27143;PMS1003;14672;50.250;8.312;2023-08-12T12:15:02;13.25;13.25;7.00
27143;PMS1003;14672;50.250;8.312;2023-08-12T12:17:29;10.25;10.25;5.50
27143;PMS1003;14672;50.250;8.312;2023-08-12T12:19:56;12.25;12.25;6.00
27143;PMS1003;14672;50.250;8.312;2023-08-12T12:22:31;10.25;10.25;5.75
27143;PMS1003;14672;50.250;8.312;2023-08-12T12:25:05;11.75;11.50;5.25
27143;PMS1003;14672;50.250;8.312;2023-08-12T12:27:34;11.00;11.00;6.00
27143;PMS1003;14672;50.250;8.312;2023-08-12T12:30:02;10.75;10.75;5.25
27143;PMS1003;14672;50.250;8.312;2023-08-12T12:32:28;13.25;12.50;5.75
27143;PMS1003;14672;50.250;8.312;2023-08-12T12:34:54;12.00;12.00;6.67
27143;PMS1003;14672;50.250;8.312;2023-08-12T12:37:20;11.00;11.00;5.67
27143;PMS1003;14672;50.250;8.312;2023-08-12T12:39:46;12.50;12.50;6.00
27143;PMS1003;14672;50.250;8.312;2023-08-12T12:42:12;9.00;9.00;4.67
27143;PMS1003;14672;50.250;8.312;2023-08-12T12:44:38;11.00;11.00;6.00
27143;PMS1003;14672;50.250;8.312;2023-08-12T12:47:03;11.67;11.33;5.67
27143;PMS1003;14672;50.250;8.312;2023-08-12T12:49:32;10.75;10.25;5.00
27143;PMS1003;14672;50.250;8.312;2023-08-12T12:51:58;11.00;11.00;4.67
27143;PMS1003;14672;50.250;8.312;2023-08-12T12:54:24;10.67;10.67;5.33
27143;PMS1003;14672;50.250;8.312;2023-08-12T12:56:50;9.67;9.67;5.00
27143;PMS1003;14672;50.250;8.312;2023-08-12T12:59:15;10.33;10.33;5.67
27143;PMS1003;14672;50.250;8.312;2023-08-12T13:01:42;7.50;7.50;5.00
27143;PMS1003;14672;50.250;8.312;2023-08-12T13:04:08;9.25;8.75;5.00
27143;PMS1003;14672;50.250;8.312;2023-08-12T13:06:34;12.67;12.00;5.00
27143;PMS1003;14672;50.250;8.312;2023-08-12T13:09:00;10.67;10.33;5.00
27143;PMS1003;14672;50.250;8.312;2023-08-12T13:11:26;11.00;11.00;6.00
27143;PMS1003;14672;50.250;8.312;2023-08-12T13:13:53;10.25;9.75;4.00
27143;PMS1003;14672;50.250;8.312;2023-08-12T13:16:20;9.25;9.25;4.25
27143;PMS1003;14672;50.250;8.312;2023-08-12T13:18:45;11.00;10.67;4.67
27143;PMS1003;14672;50.250;8.312;2023-08-12T13:21:11;9.00;9.00;5.00
27143;PMS1003;14672;50.250;8.312;2023-08-12T13:23:37;11.00;9.33;5.67
27143;PMS1003;14672;50.250;8.312;2023-08-12T13:26:03;10.67;9.00;4.33
27143;PMS1003;14672;50.250;8.312;2023-08-12T13:28:29;11.25;11.25;5.00
27143;PMS1003;14672;50.250;8.312;2023-08-12T13:30:55;12.00;11.00;5.00
27143;PMS1003;14672;50.250;8.312;2023-08-12T13:33:21;8.00;8.00;5.50
27143;PMS1003;14672;50.250;8.312;2023-08-12T13:35:46;9.33;9.33;5.00
27143;PMS1003;14672;50.250;8.312;2023-08-12T13:38:12;10.00;9.67;5.33
27143;PMS1003;14672;50.250;8.312;2023-08-12T13:40:38;8.50;8.25;5.00
27143;PMS1003;14672;50.250;8.312;2023-08-12T13:43:04;9.67;9.67;5.33
27143;PMS1003;14672;50.250;8.312;2023-08-12T13:45:30;10.33;9.33;5.67
27143;PMS1003;14672;50.250;8.312;2023-08-12T13:47:56;10.50;10.50;5.00
27143;PMS1003;14672;50.250;8.312;2023-08-12T13:50:22;11.00;11.00;5.00
27143;PMS1003;14672;50.250;8.312;2023-08-12T13:52:48;11.00;11.00;5.00
27143;PMS1003;14672;50.250;8.312;2023-08-12T13:55:18;10.25;10.25;5.00
27143;PMS1003;14672;50.250;8.312;2023-08-12T13:57:44;10.50;10.50;6.00
27143;PMS1003;14672;50.250;8.312;2023-08-12T14:00:10;8.67;8.67;5.00
27143;PMS1003;14672;50.250;8.312;2023-08-12T14:02:38;9.75;9.75;5.00
27143;PMS1003;14672;50.250;8.312;2023-08-12T14:05:05;10.50;10.50;5.25